sensor_id;sensor_type;location;lat;lon;timestamp;P1;durP1;ratioP1;P2;durP2;ratioP2
27219;SDS011;45274;52.266;10.790;2024-02-15T00:01:06;2.97;;;2.13;;
27219;SDS011;45274;52.266;10.790;2024-02-15T00:03:31;2.47;;;2.00;;
27219;SDS011;45274;52.266;10.790;2024-02-15T00:05:59;2.22;;;2.00;;
27219;SDS011;45274;52.266;10.790;2024-02-15T00:08:25;2.30;;;2.10;;
27219;SDS011;45274;52.266;10.790;2024-02-15T00:10:52;3.50;;;2.40;;
27219;SDS011;45274;52.266;10.790;2024-02-15T00:13:18;4.18;;;2.40;;
27219;SDS011;45274;52.266;10.790;2024-02-15T00:15:43;2.58;;;2.28;;
27219;SDS011;45274;52.266;10.790;2024-02-15T00:18:13;2.50;;;2.08;;
27219;SDS011;45274;52.266;10.790;2024-02-15T00:20:39;2.90;;;2.60;;
27219;SDS011;45274;52.266;10.790;2024-02-15T00:23:04;3.05;;;2.50;;
27219;SDS011;45274;52.266;10.790;2024-02-15T00:25:31;2.70;;;2.45;;
27219;SDS011;45274;52.266;10.790;2024-02-15T00:27:57;2.78;;;2.42;;
27219;SDS011;45274;52.266;10.790;2024-02-15T00:30:22;3.28;;;2.60;;
27219;SDS011;45274;52.266;10.790;2024-02-15T00:32:48;2.90;;;2.60;;
27219;SDS011;45274;52.266;10.790;2024-02-15T00:35:13;3.83;;;2.70;;
27219;SDS011;45274;52.266;10.790;2024-02-15T00:37:42;2.88;;;2.40;;
27219;SDS011;45274;52.266;10.790;2024-02-15T00:40:07;2.58;;;2.33;;
27219;SDS011;45274;52.266;10.790;2024-02-15T00:42:33;3.47;;;2.70;;
27219;SDS011;45274;52.266;10.790;2024-02-15T00:44:59;3.50;;;2.60;;
27219;SDS011;45274;52.266;10.790;2024-02-15T00:47:24;3.80;;;2.78;;
27219;SDS011;45274;52.266;10.790;2024-02-15T00:49:50;4.55;;;3.30;;
27219;SDS011;45274;52.266;10.790;2024-02-15T00:52:15;3.22;;;2.92;;
27219;SDS011;45274;52.266;10.790;2024-02-15T00:54:43;3.40;;;2.97;;
27219;SDS011;45274;52.266;10.790;2024-02-15T00:57:09;2.92;;;2.63;;
27219;SDS011;45274;52.266;10.790;2024-02-15T00:59:35;4.15;;;2.72;;
27219;SDS011;45274;52.266;10.790;2024-02-15T01:02:01;3.72;;;2.70;;
27219;SDS011;45274;52.266;10.790;2024-02-15T01:04:27;2.63;;;2.30;;
27219;SDS011;45274;52.266;10.790;2024-02-15T01:06:53;3.15;;;2.67;;
27219;SDS011;45274;52.266;10.790;2024-02-15T01:09:18;3.95;;;2.53;;
27219;SDS011;45274;52.266;10.790;2024-02-15T01:11:43;4.60;;;2.70;;
27219;SDS011;45274;52.266;10.790;2024-02-15T01:14:09;2.92;;;2.55;;
27219;SDS011;45274;52.266;10.790;2024-02-15T01:16:35;2.88;;;2.35;;
27219;SDS011;45274;52.266;10.790;2024-02-15T01:19:01;2.80;;;2.35;;
27219;SDS011;45274;52.266;10.790;2024-02-15T01:21:26;5.25;;;2.55;;
27219;SDS011;45274;52.266;10.790;2024-02-15T01:23:52;2.47;;;2.03;;
27219;SDS011;45274;52.266;10.790;2024-02-15T01:26:19;3.05;;;2.17;;
27219;SDS011;45274;52.266;10.790;2024-02-15T01:28:45;2.70;;;2.30;;
27219;SDS011;45274;52.266;10.790;2024-02-15T01:31:10;3.22;;;2.30;;
27219;SDS011;45274;52.266;10.790;2024-02-15T01:33:36;5.50;;;2.50;;
27219;SDS011;45274;52.266;10.790;2024-02-15T01:36:03;3.03;;;2.35;;
27219;SDS011;45274;52.266;10.790;2024-02-15T01:38:29;3.38;;;2.38;;
27219;SDS011;45274;52.266;10.790;2024-02-15T01:40:55;2.83;;;2.30;;
27219;SDS011;45274;52.266;10.790;2024-02-15T01:43:20;3.65;;;2.13;;
27219;SDS011;45274;52.266;10.790;2024-02-15T01:45:45;2.67;;;2.38;;
27219;SDS011;45274;52.266;10.790;2024-02-15T01:48:14;3.00;;;2.38;;
27219;SDS011;45274;52.266;10.790;2024-02-15T01:50:40;3.17;;;2.83;;
27219;SDS011;45274;52.266;10.790;2024-02-15T01:53:07;3.15;;;2.58;;
27219;SDS011;45274;52.266;10.790;2024-02-15T01:55:35;4.22;;;2.55;;
27219;SDS011;45274;52.266;10.790;2024-02-15T01:58:01;2.75;;;2.40;;
27219;SDS011;45274;52.266;10.790;2024-02-15T02:00:26;2.92;;;2.17;;
27219;SDS011;45274;52.266;10.790;2024-02-15T02:02:53;3.53;;;2.60;;
27219;SDS011;45274;52.266;10.790;2024-02-15T02:05:19;5.60;;;2.45;;
27219;SDS011;45274;52.266;10.790;2024-02-15T02:07:45;2.38;;;2.15;;
27219;SDS011;45274;52.266;10.790;2024-02-15T02:10:11;3.33;;;2.60;;
27219;SDS011;45274;52.266;10.790;2024-02-15T02:12:37;2.97;;;2.38;;
27219;SDS011;45274;52.266;10.790;2024-02-15T02:15:05;2.95;;;2.53;;
27219;SDS011;45274;52.266;10.790;2024-02-15T02:17:32;3.28;;;2.30;;
27219;SDS011;45274;52.266;10.790;2024-02-15T02:19:58;4.50;;;2.47;;
27219;SDS011;45274;52.266;10.790;2024-02-15T02:22:24;3.38;;;2.30;;
27219;SDS011;45274;52.266;10.790;2024-02-15T02:25:00;2.65;;;2.20;;
27219;SDS011;45274;52.266;10.790;2024-02-15T02:27:36;2.58;;;2.20;;
27219;SDS011;45274;52.266;10.790;2024-02-15T02:30:04;3.00;;;2.42;;
27219;SDS011;45274;52.266;10.790;2024-02-15T02:32:39;3.40;;;2.35;;
27219;SDS011;45274;52.266;10.790;2024-02-15T02:35:04;3.15;;;2.35;;
27219;SDS011;45274;52.266;10.790;2024-02-15T02:37:32;2.60;;;2.17;;
27219;SDS011;45274;52.266;10.790;2024-02-15T02:40:01;4.20;;;2.55;;
27219;SDS011;45274;52.266;10.790;2024-02-15T02:42:27;3.22;;;2.40;;
27219;SDS011;45274;52.266;10.790;2024-02-15T02:44:53;2.78;;;2.40;;
27219;SDS011;45274;52.266;10.790;2024-02-15T02:47:18;2.90;;;2.08;;
27219;SDS011;45274;52.266;10.790;2024-02-15T02:49:44;2.83;;;2.40;;
27219;SDS011;45274;52.266;10.790;2024-02-15T02:52:09;3.42;;;2.58;;
27219;SDS011;45274;52.266;10.790;2024-02-15T02:54:35;4.13;;;2.40;;
27219;SDS011;45274;52.266;10.790;2024-02-15T02:57:00;3.22;;;2.50;;
27219;SDS011;45274;52.266;10.790;2024-02-15T02:59:26;4.22;;;2.42;;
27219;SDS011;45274;52.266;10.790;2024-02-15T03:01:51;3.92;;;2.60;;
27219;SDS011;45274;52.266;10.790;2024-02-15T03:04:18;2.78;;;2.40;;
27219;SDS011;45274;52.266;10.790;2024-02-15T03:06:43;3.00;;;2.22;;
27219;SDS011;45274;52.266;10.790;2024-02-15T03:09:09;3.58;;;2.58;;
27219;SDS011;45274;52.266;10.790;2024-02-15T03:11:36;2.20;;;2.00;;
27219;SDS011;45274;52.266;10.790;2024-02-15T03:14:01;4.72;;;2.28;;
27219;SDS011;45274;52.266;10.790;2024-02-15T03:16:29;3.85;;;2.00;;
27219;SDS011;45274;52.266;10.790;2024-02-15T03:18:56;3.75;;;2.03;;
27219;SDS011;45274;52.266;10.790;2024-02-15T03:21:21;2.13;;;1.88;;
27219;SDS011;45274;52.266;10.790;2024-02-15T03:23:47;4.05;;;2.20;;
27219;SDS011;45274;52.266;10.790;2024-02-15T03:26:12;4.38;;;2.20;;
27219;SDS011;45274;52.266;10.790;2024-02-15T03:28:39;2.13;;;1.80;;
27219;SDS011;45274;52.266;10.790;2024-02-15T03:31:04;2.42;;;2.22;;
27219;SDS011;45274;52.266;10.790;2024-02-15T03:33:29;3.10;;;2.30;;
27219;SDS011;45274;52.266;10.790;2024-02-15T03:35:59;3.17;;;2.25;;
27219;SDS011;45274;52.266;10.790;2024-02-15T03:38:26;2.95;;;1.88;;
27219;SDS011;45274;52.266;10.790;2024-02-15T03:40:52;2.35;;;1.95;;
27219;SDS011;45274;52.266;10.790;2024-02-15T03:43:17;4.80;;;2.00;;
27219;SDS011;45274;52.266;10.790;2024-02-15T03:45:42;2.30;;;2.08;;
27219;SDS011;45274;52.266;10.790;2024-02-15T03:48:09;1.80;;;1.58;;
27219;SDS011;45274;52.266;10.790;2024-02-15T03:50:35;2.28;;;1.90;;
27219;SDS011;45274;52.266;10.790;2024-02-15T03:53:00;2.65;;;1.75;;
27219;SDS011;45274;52.266;10.790;2024-02-15T03:55:26;2.00;;;1.77;;
27219;SDS011;45274;52.266;10.790;2024-02-15T03:57:51;2.67;;;1.75;;
27219;SDS011;45274;52.266;10.790;2024-02-15T04:00:18;1.92;;;1.60;;
27219;SDS011;45274;52.266;10.790;2024-02-15T04:02:45;1.73;;;1.50;;
27219;SDS011;45274;52.266;10.790;2024-02-15T04:05:12;1.63;;;1.52;;
27219;SDS011;45274;52.266;10.790;2024-02-15T04:07:38;3.65;;;1.73;;
27219;SDS011;45274;52.266;10.790;2024-02-15T04:10:04;1.50;;;1.40;;
27219;SDS011;45274;52.266;10.790;2024-02-15T04:12:30;1.90;;;1.33;;
27219;SDS011;45274;52.266;10.790;2024-02-15T04:14:56;3.53;;;1.65;;
27219;SDS011;45274;52.266;10.790;2024-02-15T04:17:25;1.42;;;1.33;;
27219;SDS011;45274;52.266;10.790;2024-02-15T04:19:50;2.88;;;1.63;;
27219;SDS011;45274;52.266;10.790;2024-02-15T04:22:18;1.40;;;1.20;;
27219;SDS011;45274;52.266;10.790;2024-02-15T04:24:43;2.15;;;1.48;;
27219;SDS011;45274;52.266;10.790;2024-02-15T04:27:10;2.63;;;1.52;;
27219;SDS011;45274;52.266;10.790;2024-02-15T04:29:39;1.77;;;1.60;;
27219;SDS011;45274;52.266;10.790;2024-02-15T04:32:09;1.73;;;1.38;;
27219;SDS011;45274;52.266;10.790;2024-02-15T04:34:36;1.40;;;1.30;;
27219;SDS011;45274;52.266;10.790;2024-02-15T04:37:02;1.55;;;1.30;;
27219;SDS011;45274;52.266;10.790;2024-02-15T04:39:32;1.92;;;1.00;;
27219;SDS011;45274;52.266;10.790;2024-02-15T04:41:57;2.72;;;1.40;;
27219;SDS011;45274;52.266;10.790;2024-02-15T04:44:23;2.00;;;1.30;;
27219;SDS011;45274;52.266;10.790;2024-02-15T04:46:52;1.63;;;1.45;;
27219;SDS011;45274;52.266;10.790;2024-02-15T04:49:18;1.55;;;1.05;;
27219;SDS011;45274;52.266;10.790;2024-02-15T04:51:44;1.27;;;0.90;;
27219;SDS011;45274;52.266;10.790;2024-02-15T04:54:10;1.80;;;0.90;;
27219;SDS011;45274;52.266;10.790;2024-02-15T04:56:41;5.38;;;1.50;;
27219;SDS011;45274;52.266;10.790;2024-02-15T04:59:07;1.52;;;1.02;;
27219;SDS011;45274;52.266;10.790;2024-02-15T05:01:34;1.42;;;0.90;;
27219;SDS011;45274;52.266;10.790;2024-02-15T05:04:00;2.45;;;1.20;;
27219;SDS011;45274;52.266;10.790;2024-02-15T05:06:32;1.05;;;0.75;;
27219;SDS011;45274;52.266;10.790;2024-02-15T05:08:58;2.45;;;0.90;;
27219;SDS011;45274;52.266;10.790;2024-02-15T05:11:25;2.22;;;0.95;;
27219;SDS011;45274;52.266;10.790;2024-02-15T05:13:50;1.50;;;1.02;;
27219;SDS011;45274;52.266;10.790;2024-02-15T05:16:16;3.28;;;1.27;;
27219;SDS011;45274;52.266;10.790;2024-02-15T05:18:42;2.78;;;1.20;;
27219;SDS011;45274;52.266;10.790;2024-02-15T05:21:07;1.10;;;1.00;;
27219;SDS011;45274;52.266;10.790;2024-02-15T05:23:40;1.30;;;1.10;;
27219;SDS011;45274;52.266;10.790;2024-02-15T05:26:07;3.35;;;1.80;;
27219;SDS011;45274;52.266;10.790;2024-02-15T05:28:33;1.20;;;1.10;;
27219;SDS011;45274;52.266;10.790;2024-02-15T05:31:12;2.42;;;1.88;;
27219;SDS011;45274;52.266;10.790;2024-02-15T05:33:51;1.75;;;1.50;;
27219;SDS011;45274;52.266;10.790;2024-02-15T05:36:19;2.45;;;1.40;;
27219;SDS011;45274;52.266;10.790;2024-02-15T05:38:46;1.88;;;1.52;;
27219;SDS011;45274;52.266;10.790;2024-02-15T05:41:12;1.65;;;1.30;;
27219;SDS011;45274;52.266;10.790;2024-02-15T05:43:38;1.50;;;1.40;;
27219;SDS011;45274;52.266;10.790;2024-02-15T05:46:06;2.70;;;1.70;;
27219;SDS011;45274;52.266;10.790;2024-02-15T05:48:32;1.90;;;1.70;;
27219;SDS011;45274;52.266;10.790;2024-02-15T05:51:01;2.50;;;2.30;;
27219;SDS011;45274;52.266;10.790;2024-02-15T05:53:28;2.53;;;2.10;;
27219;SDS011;45274;52.266;10.790;2024-02-15T05:55:54;2.47;;;1.50;;
27219;SDS011;45274;52.266;10.790;2024-02-15T05:58:20;2.08;;;1.60;;
27219;SDS011;45274;52.266;10.790;2024-02-15T06:00:46;1.73;;;1.40;;
27219;SDS011;45274;52.266;10.790;2024-02-15T06:03:15;2.38;;;1.80;;
27219;SDS011;45274;52.266;10.790;2024-02-15T06:05:44;2.20;;;1.70;;
27219;SDS011;45274;52.266;10.790;2024-02-15T06:08:10;1.35;;;1.23;;
27219;SDS011;45274;52.266;10.790;2024-02-15T06:10:39;1.67;;;1.55;;
27219;SDS011;45274;52.266;10.790;2024-02-15T06:13:07;1.98;;;1.70;;
27219;SDS011;45274;52.266;10.790;2024-02-15T06:15:36;3.03;;;1.60;;
27219;SDS011;45274;52.266;10.790;2024-02-15T06:18:01;2.67;;;1.50;;
27219;SDS011;45274;52.266;10.790;2024-02-15T06:20:33;1.65;;;1.10;;
27219;SDS011;45274;52.266;10.790;2024-02-15T06:22:59;1.55;;;1.35;;
27219;SDS011;45274;52.266;10.790;2024-02-15T06:25:24;2.20;;;1.30;;
27219;SDS011;45274;52.266;10.790;2024-02-15T06:27:51;1.48;;;1.38;;
27219;SDS011;45274;52.266;10.790;2024-02-15T06:30:23;1.65;;;1.23;;
27219;SDS011;45274;52.266;10.790;2024-02-15T06:33:07;1.48;;;1.10;;
27219;SDS011;45274;52.266;10.790;2024-02-15T06:35:51;1.10;;;1.00;;
27219;SDS011;45274;52.266;10.790;2024-02-15T06:38:35;1.73;;;1.40;;
27219;SDS011;45274;52.266;10.790;2024-02-15T06:41:19;2.55;;;1.40;;
27219;SDS011;45274;52.266;10.790;2024-02-15T06:43:44;1.63;;;1.20;;
27219;SDS011;45274;52.266;10.790;2024-02-15T06:46:09;1.90;;;0.93;;
27219;SDS011;45274;52.266;10.790;2024-02-15T06:48:36;1.60;;;1.25;;
27219;SDS011;45274;52.266;10.790;2024-02-15T06:51:02;1.88;;;1.13;;
27219;SDS011;45274;52.266;10.790;2024-02-15T06:53:28;1.77;;;1.00;;
27219;SDS011;45274;52.266;10.790;2024-02-15T06:55:55;1.10;;;1.00;;
27219;SDS011;45274;52.266;10.790;2024-02-15T06:58:22;1.40;;;1.10;;
27219;SDS011;45274;52.266;10.790;2024-02-15T07:00:47;1.60;;;1.15;;
27219;SDS011;45274;52.266;10.790;2024-02-15T07:03:15;2.60;;;1.20;;
27219;SDS011;45274;52.266;10.790;2024-02-15T07:05:42;3.28;;;1.38;;
27219;SDS011;45274;52.266;10.790;2024-02-15T07:08:08;2.42;;;1.85;;
27219;SDS011;45274;52.266;10.790;2024-02-15T07:10:38;2.17;;;1.80;;
27219;SDS011;45274;52.266;10.790;2024-02-15T07:13:04;4.22;;;1.70;;
27219;SDS011;45274;52.266;10.790;2024-02-15T07:15:30;4.68;;;1.85;;
27219;SDS011;45274;52.266;10.790;2024-02-15T07:17:58;2.17;;;1.80;;
27219;SDS011;45274;52.266;10.790;2024-02-15T07:20:24;3.47;;;1.90;;
27219;SDS011;45274;52.266;10.790;2024-02-15T07:22:49;2.20;;;1.90;;
27219;SDS011;45274;52.266;10.790;2024-02-15T07:25:15;4.03;;;2.13;;
27219;SDS011;45274;52.266;10.790;2024-02-15T07:27:40;4.88;;;2.13;;
27219;SDS011;45274;52.266;10.790;2024-02-15T07:30:06;3.08;;;1.90;;
27219;SDS011;45274;52.266;10.790;2024-02-15T07:32:33;3.95;;;2.30;;
27219;SDS011;45274;52.266;10.790;2024-02-15T07:35:00;2.13;;;1.88;;
27219;SDS011;45274;52.266;10.790;2024-02-15T07:37:26;3.40;;;2.10;;
27219;SDS011;45274;52.266;10.790;2024-02-15T07:39:52;6.65;;;2.40;;
27219;SDS011;45274;52.266;10.790;2024-02-15T07:42:17;3.25;;;2.10;;
27219;SDS011;45274;52.266;10.790;2024-02-15T07:44:43;4.82;;;2.38;;
27219;SDS011;45274;52.266;10.790;2024-02-15T07:47:08;3.58;;;2.17;;
27219;SDS011;45274;52.266;10.790;2024-02-15T07:49:35;5.55;;;2.08;;
27219;SDS011;45274;52.266;10.790;2024-02-15T07:52:01;4.07;;;2.33;;
27219;SDS011;45274;52.266;10.790;2024-02-15T07:54:29;4.10;;;1.98;;
27219;SDS011;45274;52.266;10.790;2024-02-15T07:56:55;3.72;;;1.90;;
27219;SDS011;45274;52.266;10.790;2024-02-15T07:59:21;6.20;;;1.98;;
27219;SDS011;45274;52.266;10.790;2024-02-15T08:01:46;4.43;;;1.85;;
27219;SDS011;45274;52.266;10.790;2024-02-15T08:04:15;3.80;;;2.20;;
27219;SDS011;45274;52.266;10.790;2024-02-15T08:06:43;3.08;;;1.95;;
27219;SDS011;45274;52.266;10.790;2024-02-15T08:09:09;5.05;;;1.70;;
27219;SDS011;45274;52.266;10.790;2024-02-15T08:11:43;3.90;;;1.75;;
27219;SDS011;45274;52.266;10.790;2024-02-15T08:14:08;4.40;;;1.70;;
27219;SDS011;45274;52.266;10.790;2024-02-15T08:16:36;3.85;;;1.52;;
27219;SDS011;45274;52.266;10.790;2024-02-15T08:19:02;2.45;;;1.60;;
27219;SDS011;45274;52.266;10.790;2024-02-15T08:21:30;3.00;;;1.48;;
27219;SDS011;45274;52.266;10.790;2024-02-15T08:24:02;2.57;;;1.30;;
27219;SDS011;45274;52.266;10.790;2024-02-15T08:26:37;2.88;;;1.50;;
27219;SDS011;45274;52.266;10.790;2024-02-15T08:29:04;4.35;;;1.40;;
27219;SDS011;45274;52.266;10.790;2024-02-15T08:31:31;4.10;;;1.40;;
27219;SDS011;45274;52.266;10.790;2024-02-15T08:33:57;3.13;;;1.58;;
27219;SDS011;45274;52.266;10.790;2024-02-15T08:36:22;3.95;;;1.40;;
27219;SDS011;45274;52.266;10.790;2024-02-15T08:38:49;3.17;;;1.40;;
27219;SDS011;45274;52.266;10.790;2024-02-15T08:41:15;3.97;;;1.30;;
27219;SDS011;45274;52.266;10.790;2024-02-15T08:43:43;4.28;;;1.20;;
27219;SDS011;45274;52.266;10.790;2024-02-15T08:46:08;1.88;;;1.10;;
27219;SDS011;45274;52.266;10.790;2024-02-15T08:48:35;4.50;;;1.30;;
27219;SDS011;45274;52.266;10.790;2024-02-15T08:51:00;3.47;;;1.15;;
27219;SDS011;45274;52.266;10.790;2024-02-15T08:53:26;3.83;;;1.33;;
27219;SDS011;45274;52.266;10.790;2024-02-15T08:55:52;1.98;;;1.15;;
27219;SDS011;45274;52.266;10.790;2024-02-15T08:58:18;2.60;;;1.08;;
27219;SDS011;45274;52.266;10.790;2024-02-15T09:00:44;5.47;;;1.20;;
27219;SDS011;45274;52.266;10.790;2024-02-15T09:03:10;2.92;;;1.15;;
27219;SDS011;45274;52.266;10.790;2024-02-15T09:05:37;6.85;;;1.55;;
27219;SDS011;45274;52.266;10.790;2024-02-15T09:08:03;2.85;;;1.10;;
27219;SDS011;45274;52.266;10.790;2024-02-15T09:10:31;3.15;;;1.20;;
27219;SDS011;45274;52.266;10.790;2024-02-15T09:12:57;2.78;;;1.27;;
27219;SDS011;45274;52.266;10.790;2024-02-15T09:15:22;5.22;;;1.42;;
27219;SDS011;45274;52.266;10.790;2024-02-15T09:17:48;4.88;;;1.45;;
27219;SDS011;45274;52.266;10.790;2024-02-15T09:20:14;3.55;;;1.20;;
27219;SDS011;45274;52.266;10.790;2024-02-15T09:25:11;3.13;;;1.30;;
27219;SDS011;45274;52.266;10.790;2024-02-15T09:27:38;5.90;;;1.52;;
27219;SDS011;45274;52.266;10.790;2024-02-15T09:30:04;4.13;;;1.30;;
27219;SDS011;45274;52.266;10.790;2024-02-15T09:32:34;4.53;;;1.52;;
27219;SDS011;45274;52.266;10.790;2024-02-15T09:35:00;2.58;;;1.15;;
27219;SDS011;45274;52.266;10.790;2024-02-15T09:37:25;2.85;;;1.30;;
27219;SDS011;45274;52.266;10.790;2024-02-15T09:39:53;10.75;;;2.10;;
27219;SDS011;45274;52.266;10.790;2024-02-15T09:42:20;3.92;;;1.13;;
27219;SDS011;45274;52.266;10.790;2024-02-15T09:44:45;6.65;;;1.30;;
27219;SDS011;45274;52.266;10.790;2024-02-15T09:47:11;3.60;;;1.25;;
27219;SDS011;45274;52.266;10.790;2024-02-15T09:49:38;3.08;;;0.98;;
27219;SDS011;45274;52.266;10.790;2024-02-15T09:52:07;3.63;;;1.10;;
27219;SDS011;45274;52.266;10.790;2024-02-15T09:54:40;1.25;;;0.80;;
27219;SDS011;45274;52.266;10.790;2024-02-15T09:57:09;5.00;;;1.90;;
27219;SDS011;45274;52.266;10.790;2024-02-15T09:59:38;4.60;;;1.38;;
27219;SDS011;45274;52.266;10.790;2024-02-15T10:02:05;2.83;;;1.10;;
27219;SDS011;45274;52.266;10.790;2024-02-15T10:04:36;3.83;;;1.02;;
27219;SDS011;45274;52.266;10.790;2024-02-15T10:07:02;1.67;;;1.00;;
27219;SDS011;45274;52.266;10.790;2024-02-15T10:09:28;4.05;;;1.00;;
27219;SDS011;45274;52.266;10.790;2024-02-15T10:11:58;4.30;;;1.38;;
27219;SDS011;45274;52.266;10.790;2024-02-15T10:14:25;4.40;;;1.20;;
27219;SDS011;45274;52.266;10.790;2024-02-15T10:16:54;2.60;;;1.17;;
27219;SDS011;45274;52.266;10.790;2024-02-15T10:19:20;2.20;;;1.05;;
27219;SDS011;45274;52.266;10.790;2024-02-15T10:21:54;3.10;;;1.05;;
27219;SDS011;45274;52.266;10.790;2024-02-15T10:24:20;2.90;;;1.13;;
27219;SDS011;45274;52.266;10.790;2024-02-15T10:26:50;5.38;;;1.38;;
27219;SDS011;45274;52.266;10.790;2024-02-15T10:29:16;2.05;;;1.02;;
27219;SDS011;45274;52.266;10.790;2024-02-15T10:31:54;6.15;;;1.42;;
27219;SDS011;45274;52.266;10.790;2024-02-15T10:34:21;2.38;;;1.10;;
27219;SDS011;45274;52.266;10.790;2024-02-15T10:36:48;3.20;;;1.02;;
27219;SDS011;45274;52.266;10.790;2024-02-15T10:39:17;2.85;;;1.30;;
27219;SDS011;45274;52.266;10.790;2024-02-15T10:41:48;3.88;;;1.05;;
27219;SDS011;45274;52.266;10.790;2024-02-15T10:44:19;3.85;;;1.10;;
27219;SDS011;45274;52.266;10.790;2024-02-15T10:46:46;1.90;;;1.08;;
27219;SDS011;45274;52.266;10.790;2024-02-15T10:51:44;4.03;;;1.10;;
27219;SDS011;45274;52.266;10.790;2024-02-15T10:54:13;3.50;;;0.98;;
27219;SDS011;45274;52.266;10.790;2024-02-15T10:56:44;4.05;;;1.25;;
27219;SDS011;45274;52.266;10.790;2024-02-15T10:59:21;1.83;;;1.00;;
27219;SDS011;45274;52.266;10.790;2024-02-15T11:01:52;2.13;;;1.00;;
27219;SDS011;45274;52.266;10.790;2024-02-15T11:04:24;3.30;;;1.08;;
27219;SDS011;45274;52.266;10.790;2024-02-15T11:06:57;2.63;;;1.00;;
27219;SDS011;45274;52.266;10.790;2024-02-15T11:09:23;2.88;;;0.93;;
27219;SDS011;45274;52.266;10.790;2024-02-15T11:11:52;2.35;;;1.35;;
27219;SDS011;45274;52.266;10.790;2024-02-15T11:14:30;1.77;;;0.77;;
27219;SDS011;45274;52.266;10.790;2024-02-15T11:16:59;2.75;;;1.00;;
27219;SDS011;45274;52.266;10.790;2024-02-15T11:21:59;2.00;;;0.60;;
27219;SDS011;45274;52.266;10.790;2024-02-15T11:24:29;2.50;;;1.00;;
27219;SDS011;45274;52.266;10.790;2024-02-15T11:27:00;2.15;;;0.95;;
27219;SDS011;45274;52.266;10.790;2024-02-15T11:35:12;4.20;;;1.20;;
27219;SDS011;45274;52.266;10.790;2024-02-15T11:40:16;1.48;;;0.70;;
27219;SDS011;45274;52.266;10.790;2024-02-15T11:42:42;3.20;;;0.80;;
27219;SDS011;45274;52.266;10.790;2024-02-15T11:45:08;2.95;;;0.93;;
27219;SDS011;45274;52.266;10.790;2024-02-15T11:47:36;2.22;;;0.90;;
27219;SDS011;45274;52.266;10.790;2024-02-15T11:50:14;1.20;;;0.75;;
27219;SDS011;45274;52.266;10.790;2024-02-15T11:52:46;2.85;;;0.52;;
27219;SDS011;45274;52.266;10.790;2024-02-15T11:55:22;3.15;;;0.90;;
27219;SDS011;45274;52.266;10.790;2024-02-15T11:57:57;3.10;;;0.90;;
27219;SDS011;45274;52.266;10.790;2024-02-15T12:00:36;2.08;;;0.70;;
27219;SDS011;45274;52.266;10.790;2024-02-15T12:03:25;2.30;;;0.80;;
27219;SDS011;45274;52.266;10.790;2024-02-15T12:06:09;3.22;;;0.90;;
27219;SDS011;45274;52.266;10.790;2024-02-15T12:08:54;3.00;;;1.02;;
27219;SDS011;45274;52.266;10.790;2024-02-15T12:11:39;3.08;;;1.20;;
27219;SDS011;45274;52.266;10.790;2024-02-15T12:14:23;1.65;;;0.90;;
27219;SDS011;45274;52.266;10.790;2024-02-15T12:17:07;2.10;;;0.90;;
27219;SDS011;45274;52.266;10.790;2024-02-15T12:19:56;2.58;;;0.90;;
27219;SDS011;45274;52.266;10.790;2024-02-15T12:22:28;2.17;;;0.80;;
27219;SDS011;45274;52.266;10.790;2024-02-15T12:24:59;2.35;;;0.90;;
27219;SDS011;45274;52.266;10.790;2024-02-15T12:27:26;6.22;;;1.00;;
27219;SDS011;45274;52.266;10.790;2024-02-15T12:32:22;2.90;;;1.27;;
27219;SDS011;45274;52.266;10.790;2024-02-15T12:34:48;3.13;;;0.90;;
27219;SDS011;45274;52.266;10.790;2024-02-15T12:37:17;1.70;;;0.90;;
27219;SDS011;45274;52.266;10.790;2024-02-15T12:39:43;2.08;;;1.02;;
27219;SDS011;45274;52.266;10.790;2024-02-15T12:42:08;2.60;;;0.80;;
27219;SDS011;45274;52.266;10.790;2024-02-15T12:44:34;2.25;;;0.82;;
27219;SDS011;45274;52.266;10.790;2024-02-15T12:47:01;3.75;;;1.10;;
27219;SDS011;45274;52.266;10.790;2024-02-15T12:49:28;4.15;;;0.95;;
27219;SDS011;45274;52.266;10.790;2024-02-15T12:52:32;1.70;;;0.55;;
27219;SDS011;45274;52.266;10.790;2024-02-15T12:55:12;1.35;;;0.70;;
27219;SDS011;45274;52.266;10.790;2024-02-15T12:57:43;1.42;;;0.80;;
27219;SDS011;45274;52.266;10.790;2024-02-15T13:00:10;3.30;;;0.90;;
27219;SDS011;45274;52.266;10.790;2024-02-15T13:02:38;2.28;;;1.00;;
27219;SDS011;45274;52.266;10.790;2024-02-15T13:05:05;1.88;;;0.80;;
27219;SDS011;45274;52.266;10.790;2024-02-15T13:07:33;2.50;;;0.80;;
27219;SDS011;45274;52.266;10.790;2024-02-15T13:09:58;3.78;;;1.02;;
27219;SDS011;45274;52.266;10.790;2024-02-15T13:12:24;2.92;;;0.98;;
27219;SDS011;45274;52.266;10.790;2024-02-15T13:14:49;5.03;;;1.08;;
27219;SDS011;45274;52.266;10.790;2024-02-15T13:17:15;3.40;;;1.38;;
27219;SDS011;45274;52.266;10.790;2024-02-15T13:19:45;2.63;;;1.02;;
27219;SDS011;45274;52.266;10.790;2024-02-15T13:22:12;5.82;;;1.35;;
27219;SDS011;45274;52.266;10.790;2024-02-15T13:24:37;3.95;;;0.95;;
27219;SDS011;45274;52.266;10.790;2024-02-15T13:27:03;3.30;;;0.80;;
27219;SDS011;45274;52.266;10.790;2024-02-15T13:29:29;1.10;;;0.82;;
27219;SDS011;45274;52.266;10.790;2024-02-15T13:31:54;3.65;;;1.13;;
27219;SDS011;45274;52.266;10.790;2024-02-15T13:34:20;2.08;;;0.85;;
27219;SDS011;45274;52.266;10.790;2024-02-15T13:36:45;2.17;;;0.80;;
27219;SDS011;45274;52.266;10.790;2024-02-15T13:39:11;2.60;;;0.90;;
27219;SDS011;45274;52.266;10.790;2024-02-15T13:41:36;4.32;;;1.67;;
27219;SDS011;45274;52.266;10.790;2024-02-15T13:44:02;2.22;;;0.85;;
27219;SDS011;45274;52.266;10.790;2024-02-15T13:46:27;3.78;;;1.15;;
27219;SDS011;45274;52.266;10.790;2024-02-15T13:48:52;2.10;;;0.70;;
27219;SDS011;45274;52.266;10.790;2024-02-15T13:51:18;2.65;;;0.70;;
27219;SDS011;45274;52.266;10.790;2024-02-15T13:53:44;3.20;;;0.80;;
27219;SDS011;45274;52.266;10.790;2024-02-15T13:56:09;2.28;;;0.80;;
27219;SDS011;45274;52.266;10.790;2024-02-15T13:58:35;3.45;;;1.05;;
27219;SDS011;45274;52.266;10.790;2024-02-15T14:01:00;1.92;;;0.90;;
27219;SDS011;45274;52.266;10.790;2024-02-15T14:03:29;5.47;;;1.10;;
27219;SDS011;45274;52.266;10.790;2024-02-15T14:05:55;2.75;;;0.90;;
27219;SDS011;45274;52.266;10.790;2024-02-15T14:08:20;2.85;;;0.90;;
27219;SDS011;45274;52.266;10.790;2024-02-15T14:10:47;2.03;;;0.90;;
27219;SDS011;45274;52.266;10.790;2024-02-15T14:13:13;8.00;;;3.75;;
27219;SDS011;45274;52.266;10.790;2024-02-15T14:15:39;3.63;;;1.77;;
27219;SDS011;45274;52.266;10.790;2024-02-15T14:18:09;3.25;;;1.88;;
27219;SDS011;45274;52.266;10.790;2024-02-15T14:20:36;2.08;;;1.23;;
27219;SDS011;45274;52.266;10.790;2024-02-15T14:23:02;2.75;;;0.90;;
27219;SDS011;45274;52.266;10.790;2024-02-15T14:25:31;1.55;;;0.85;;
27219;SDS011;45274;52.266;10.790;2024-02-15T14:27:57;0.95;;;0.65;;
27219;SDS011;45274;52.266;10.790;2024-02-15T14:30:23;2.45;;;0.90;;
27219;SDS011;45274;52.266;10.790;2024-02-15T14:33:10;2.53;;;0.82;;
27219;SDS011;45274;52.266;10.790;2024-02-15T14:35:39;3.53;;;1.10;;
27219;SDS011;45274;52.266;10.790;2024-02-15T14:40:37;2.00;;;0.82;;
27219;SDS011;45274;52.266;10.790;2024-02-15T14:43:04;2.72;;;1.52;;
27219;SDS011;45274;52.266;10.790;2024-02-15T14:45:34;4.20;;;1.45;;
27219;SDS011;45274;52.266;10.790;2024-02-15T14:48:01;4.05;;;1.00;;
27219;SDS011;45274;52.266;10.790;2024-02-15T14:50:28;2.05;;;0.80;;
27219;SDS011;45274;52.266;10.790;2024-02-15T14:52:54;4.65;;;1.15;;
27219;SDS011;45274;52.266;10.790;2024-02-15T14:55:19;2.25;;;0.82;;
27219;SDS011;45274;52.266;10.790;2024-02-15T14:57:45;4.30;;;1.10;;